createdAt,value
2019-05-22T00:01:50.059Z,8.47
2019-05-22T00:04:35.571Z,7.53
2019-05-22T00:07:09.671Z,11.67
2019-05-22T00:09:45.557Z,7.73
2019-05-22T00:12:24.624Z,8.80
2019-05-22T00:14:58.436Z,15.70
2019-05-22T00:17:34.513Z,10.83
2019-05-22T00:20:09.260Z,5.57
2019-05-22T00:22:46.351Z,13.03
2019-05-22T00:25:23.906Z,9.93
2019-05-22T00:27:59.850Z,14.03
2019-05-22T00:30:36.694Z,7.70
2019-05-22T00:33:16.262Z,6.97
2019-05-22T00:35:50.270Z,7.03
2019-05-22T00:38:25.758Z,6.77
2019-05-22T00:41:06.250Z,4.90
2019-05-22T00:43:44.911Z,10.50
2019-05-22T00:46:20.862Z,18.10
2019-05-22T00:48:54.531Z,11.03
2019-05-22T00:52:06.327Z,7.87
2019-05-22T00:55:20.121Z,6.30
2019-05-22T00:58:18.089Z,7.23
2019-05-22T01:01:04.088Z,9.80
2019-05-22T01:03:43.289Z,3.77
2019-05-22T01:06:18.780Z,13.23
2019-05-22T01:08:53.115Z,9.77
2019-05-22T01:11:31.687Z,6.07
2019-05-22T01:14:08.032Z,7.53
2019-05-22T01:16:43.101Z,9.10
2019-05-22T01:19:16.577Z,7.80
2019-05-22T01:21:50.702Z,10.03
2019-05-22T01:24:25.499Z,12.80
2019-05-22T01:27:00.320Z,8.20
2019-05-22T01:29:34.314Z,4.67
2019-05-22T01:32:28.020Z,6.03
2019-05-22T01:35:02.481Z,6.63
2019-05-22T01:37:39.779Z,6.90
2019-05-22T01:40:22.851Z,11.50
2019-05-22T01:42:59.567Z,3.80
2019-05-22T01:45:34.213Z,2.07
2019-05-22T01:48:12.769Z,3.07
2019-05-22T01:51:01.064Z,5.33
2019-05-22T01:53:41.454Z,7.97
2019-05-22T01:56:17.271Z,5.00
2019-05-22T01:58:52.635Z,6.23
2019-05-22T02:01:27.952Z,10.83
2019-05-22T02:04:04.606Z,13.10
2019-05-22T02:06:40.055Z,9.70
2019-05-22T02:09:31.552Z,8.73
2019-05-22T02:12:26.173Z,8.67
2019-05-22T02:14:59.307Z,6.53
2019-05-22T02:17:37.583Z,9.00
2019-05-22T02:20:11.647Z,8.27
2019-05-22T02:22:47.004Z,13.03
2019-05-22T02:25:22.160Z,5.47
2019-05-22T02:27:57.079Z,7.60
2019-05-22T02:30:33.590Z,8.07
2019-05-22T02:33:08.756Z,12.43
2019-05-22T02:35:42.343Z,18.80
2019-05-22T02:38:15.818Z,12.50
2019-05-22T02:40:50.842Z,11.57
2019-05-22T02:43:26.709Z,9.33
2019-05-22T02:46:00.606Z,4.87
2019-05-22T02:48:34.938Z,4.70
2019-05-22T02:51:08.662Z,5.13
2019-05-22T02:53:47.737Z,8.40
2019-05-22T02:56:23.212Z,7.60
2019-05-22T02:58:58.232Z,5.63
2019-05-22T03:01:31.847Z,38.27
2019-05-22T03:04:08.144Z,8.30
2019-05-22T03:06:42.033Z,22.00
2019-05-22T03:09:28.950Z,10.17
2019-05-22T03:12:12.432Z,25.37
2019-05-22T03:14:47.037Z,8.73
2019-05-22T03:17:28.923Z,6.47
2019-05-22T03:20:07.410Z,10.40
2019-05-22T03:23:35.158Z,8.37
2019-05-22T03:26:10.808Z,11.37
2019-05-22T03:28:46.174Z,5.83
2019-05-22T03:31:19.936Z,21.93
2019-05-22T03:33:54.415Z,11.57
2019-05-22T03:36:27.936Z,10.17
2019-05-22T03:39:01.841Z,14.43
2019-05-22T03:41:36.056Z,11.50
2019-05-22T03:44:11.945Z,11.80
2019-05-22T03:46:48.546Z,10.83
2019-05-22T03:49:29.637Z,14.83
2019-05-22T03:51:56.566Z,19.57
2019-05-22T03:54:33.069Z,8.43
2019-05-22T03:57:07.192Z,13.00
2019-05-22T03:59:43.181Z,11.10
2019-05-22T04:02:17.590Z,6.60
2019-05-22T04:04:51.804Z,16.77
2019-05-22T04:07:26.954Z,13.87
2019-05-22T04:09:59.655Z,9.63
2019-05-22T04:12:33.576Z,7.37
2019-05-22T04:15:09.205Z,18.77
2019-05-22T04:17:44.661Z,15.77
2019-05-22T04:20:20.150Z,23.90
2019-05-22T04:23:00.296Z,15.07
2019-05-22T04:25:34.261Z,38.17
2019-05-22T04:28:08.399Z,14.57
2019-05-22T04:30:42.056Z,27.70
2019-05-22T04:33:18.553Z,46.50
2019-05-22T04:35:52.821Z,36.67
2019-05-22T04:38:27.552Z,19.30
2019-05-22T04:41:01.741Z,34.23
2019-05-22T04:43:37.960Z,20.07
2019-05-22T04:46:11.788Z,27.70
2019-05-22T04:48:47.431Z,17.20
2019-05-22T04:51:31.379Z,7.67
2019-05-22T04:54:05.314Z,20.33
2019-05-22T04:56:39.290Z,16.53
2019-05-22T04:59:28.662Z,11.13
2019-05-22T05:02:14.279Z,17.47
2019-05-22T05:04:48.246Z,29.33
2019-05-22T05:07:24.552Z,19.27
2019-05-22T05:10:03.065Z,20.07
2019-05-22T05:12:41.829Z,26.60
2019-05-22T05:15:18.839Z,19.73
2019-05-22T05:17:56.191Z,45.50
2019-05-22T05:20:30.247Z,41.33
2019-05-22T05:23:04.373Z,44.27
2019-05-22T05:25:38.333Z,44.67
2019-05-22T05:28:13.261Z,26.60
2019-05-22T05:30:51.120Z,26.93
2019-05-22T05:33:25.628Z,36.47
2019-05-22T05:36:00.340Z,27.80
2019-05-22T05:38:39.364Z,26.00
2019-05-22T05:41:13.259Z,31.90
2019-05-22T05:43:47.901Z,30.67
2019-05-22T05:46:22.683Z,27.37
2019-05-22T05:49:03.106Z,22.70
2019-05-22T05:51:43.519Z,9.97
2019-05-22T05:54:20.837Z,33.67
2019-05-22T05:56:59.092Z,33.97
2019-05-22T05:59:33.747Z,27.70
2019-05-22T06:02:10.091Z,28.87
2019-05-22T06:04:46.542Z,44.67
2019-05-22T06:07:22.206Z,24.20
2019-05-22T06:10:36.663Z,34.60
2019-05-22T06:13:34.599Z,44.60
2019-05-22T06:16:45.245Z,35.80
2019-05-22T06:19:21.039Z,22.87
2019-05-22T06:21:55.195Z,26.33
2019-05-22T06:25:04.749Z,33.10
2019-05-22T06:27:56.583Z,30.60
2019-05-22T06:30:48.398Z,23.67
2019-05-22T06:33:48.042Z,19.60
2019-05-22T06:36:23.498Z,31.73
2019-05-22T06:39:12.393Z,31.20
2019-05-22T06:41:47.803Z,27.80
2019-05-22T06:44:33.094Z,28.50
2019-05-22T06:47:11.984Z,26.40
2019-05-22T06:50:10.312Z,15.87
2019-05-22T06:52:44.416Z,26.77
2019-05-22T06:55:18.533Z,15.93
2019-05-22T06:57:52.867Z,21.73
2019-05-22T07:00:28.017Z,8.83
2019-05-22T07:03:02.648Z,7.50
2019-05-22T07:05:37.987Z,14.67
2019-05-22T07:08:12.511Z,13.97
2019-05-22T07:10:46.949Z,16.87
2019-05-22T07:13:21.885Z,11.20
2019-05-22T07:15:56.482Z,35.70
2019-05-22T07:18:32.509Z,20.53
2019-05-22T07:21:08.605Z,23.00
2019-05-22T07:23:43.416Z,16.70
2019-05-22T07:26:54.046Z,15.47
2019-05-22T07:29:28.379Z,30.37
2019-05-22T07:32:03.613Z,19.13
2019-05-22T07:34:38.640Z,10.67
2019-05-22T07:37:24.098Z,22.83
2019-05-22T07:40:00.009Z,20.50
2019-05-22T07:42:36.934Z,9.83
2019-05-22T07:45:37.750Z,12.90
2019-05-22T07:52:01.985Z,22.20
2019-05-22T07:54:35.915Z,7.10
2019-05-22T07:57:10.465Z,8.00
2019-05-22T07:59:49.013Z,14.90
2019-05-22T08:02:25.260Z,13.80
2019-05-22T08:05:00.838Z,5.67
2019-05-22T08:07:36.701Z,5.87
2019-05-22T08:10:29.034Z,8.87
2019-05-22T08:13:18.882Z,8.47
2019-05-22T08:16:16.326Z,14.90
2019-05-22T08:19:03.882Z,29.73
2019-05-22T08:22:14.060Z,20.93
2019-05-22T08:25:03.222Z,9.43
2019-05-22T08:27:39.611Z,12.13
2019-05-22T08:30:53.398Z,4.73
2019-05-22T08:33:32.966Z,6.80
2019-05-22T08:36:24.230Z,6.13
2019-05-22T08:39:14.896Z,8.93
2019-05-22T08:42:08.084Z,9.90
2019-05-22T08:44:49.446Z,15.43
2019-05-22T08:51:26.336Z,9.17
2019-05-22T08:57:53.059Z,9.43
2019-05-22T09:04:07.966Z,19.43
2019-05-22T09:11:27.833Z,20.60
2019-05-22T09:14:01.607Z,12.97
2019-05-22T09:16:48.693Z,20.43
2019-05-22T09:20:11.683Z,11.83
2019-05-22T09:22:55.053Z,13.50
2019-05-22T09:33:25.692Z,4.63
2019-05-22T09:36:41.055Z,14.10
2019-05-22T09:39:30.032Z,7.47
2019-05-22T09:42:19.284Z,11.57
2019-05-22T09:45:03.985Z,8.30
2019-05-22T09:47:49.476Z,13.27
2019-05-22T09:50:30.147Z,10.03
2019-05-22T09:53:03.752Z,10.50
2019-05-22T09:55:59.972Z,10.53
2019-05-22T09:58:35.583Z,11.43
2019-05-22T10:08:56.104Z,20.70
2019-05-22T10:11:31.718Z,6.77
2019-05-22T10:14:10.654Z,16.90
2019-05-22T10:17:57.505Z,8.50
2019-05-22T10:24:24.528Z,15.77
2019-05-22T10:27:21.430Z,7.57
2019-05-22T10:29:56.389Z,10.70
2019-05-22T10:32:32.601Z,10.47
2019-05-22T10:35:32.846Z,7.43
2019-05-22T10:42:20.610Z,4.97
2019-05-22T10:45:08.723Z,14.43
2019-05-22T10:48:09.046Z,5.13
2019-05-22T10:51:27.261Z,8.93
2019-05-22T10:54:19.907Z,11.80
2019-05-22T11:00:27.038Z,2.63
2019-05-22T11:06:49.315Z,5.93
2019-05-22T11:09:28.778Z,6.37
2019-05-22T11:12:29.994Z,3.10
2019-05-22T11:15:10.640Z,7.07
2019-05-22T11:21:48.988Z,7.70
2019-05-22T11:24:39.931Z,7.50
2019-05-22T11:27:15.039Z,8.90
2019-05-22T11:30:10.262Z,10.37
2019-05-22T11:32:45.129Z,9.30
2019-05-22T11:35:25.725Z,20.37
2019-05-22T11:38:06.779Z,3.40
2019-05-22T11:40:45.405Z,10.07
2019-05-22T11:43:36.828Z,5.03
2019-05-22T11:46:42.526Z,13.70
2019-05-22T11:49:34.961Z,3.50
2019-05-22T11:52:15.947Z,3.73
2019-05-22T11:54:48.526Z,6.07
2019-05-22T11:57:24.869Z,2.27
2019-05-22T11:59:59.145Z,9.77
2019-05-22T12:02:36.391Z,5.17
2019-05-22T12:05:10.946Z,5.67
2019-05-22T12:08:00.911Z,7.20
2019-05-22T12:10:36.179Z,6.20
2019-05-22T12:13:11.721Z,5.23
2019-05-22T12:15:45.950Z,5.73
2019-05-22T12:18:22.087Z,7.60
2019-05-22T12:21:39.896Z,5.33
2019-05-22T12:24:26.985Z,6.50
2019-05-22T12:26:59.435Z,1.50
2019-05-22T12:29:51.435Z,4.10
2019-05-22T12:32:25.498Z,8.90
2019-05-22T12:35:00.250Z,5.57
2019-05-22T12:37:35.308Z,6.60
2019-05-22T12:40:12.657Z,4.77
2019-05-22T12:42:49.694Z,4.93
2019-05-22T12:46:03.875Z,1.80
2019-05-22T12:48:41.593Z,2.87
2019-05-22T12:51:19.155Z,3.40
2019-05-22T12:54:03.098Z,2.80
2019-05-22T12:56:40.248Z,7.90
2019-05-22T12:59:14.920Z,5.17
2019-05-22T13:02:11.038Z,4.93
2019-05-22T13:04:44.542Z,6.77
2019-05-22T13:07:18.703Z,7.23
2019-05-22T13:10:05.247Z,2.57
2019-05-22T13:12:39.599Z,3.80
2019-05-22T13:15:13.194Z,8.97
2019-05-22T13:17:55.359Z,4.63
2019-05-22T13:20:42.689Z,5.90
2019-05-22T13:23:34.805Z,8.13
2019-05-22T13:26:07.906Z,2.73
2019-05-22T13:28:45.849Z,8.30
2019-05-22T13:31:28.596Z,10.83
2019-05-22T13:34:06.982Z,9.90
2019-05-22T13:36:41.353Z,7.43
2019-05-22T13:39:24.747Z,5.97
2019-05-22T13:41:58.780Z,4.60
2019-05-22T13:44:31.241Z,7.03
2019-05-22T13:47:04.566Z,4.67
2019-05-22T13:49:40.744Z,8.67
2019-05-22T13:52:20.530Z,3.40
2019-05-22T13:55:12.688Z,6.17
2019-05-22T13:58:04.267Z,3.27
2019-05-22T14:01:20.549Z,4.47
2019-05-22T14:04:22.095Z,5.67
2019-05-22T14:07:15.569Z,3.60
2019-05-22T14:09:51.109Z,5.37
2019-05-22T14:12:26.318Z,3.10
2019-05-22T14:15:00.703Z,4.80
2019-05-22T14:17:35.131Z,5.50
2019-05-22T14:20:10.276Z,7.27
2019-05-22T14:23:12.893Z,3.30
2019-05-22T14:25:49.807Z,6.17
2019-05-22T14:32:21.740Z,15.97
2019-05-22T14:34:56.458Z,1.70
2019-05-22T14:37:37.197Z,4.70
2019-05-22T14:40:12.777Z,1.40
2019-05-22T14:42:47.643Z,2.70
2019-05-22T14:45:22.974Z,5.57
2019-05-22T14:47:57.053Z,3.33
2019-05-22T14:50:32.946Z,2.50
2019-05-22T14:53:07.978Z,2.90
2019-05-22T14:55:50.558Z,10.70
2019-05-22T14:58:26.821Z,5.87
2019-05-22T15:01:35.905Z,4.43
2019-05-22T15:04:10.755Z,2.13
2019-05-22T15:06:45.745Z,6.77
2019-05-22T15:09:19.873Z,6.57
2019-05-22T15:12:12.114Z,2.83
2019-05-22T15:14:47.927Z,1.47
2019-05-22T15:24:02.119Z,3.90
2019-05-22T15:26:37.859Z,5.67
2019-05-22T15:29:11.780Z,4.33
2019-05-22T15:35:32.076Z,3.33
2019-05-22T15:38:37.173Z,4.93
2019-05-22T15:41:58.092Z,4.93
2019-05-22T15:45:02.371Z,4.00
2019-05-22T15:47:53.175Z,4.03
2019-05-22T16:01:53.682Z,4.27
2019-05-22T16:05:24.090Z,4.67
2019-05-22T16:12:33.916Z,4.37
2019-05-22T16:15:24.580Z,13.83
2019-05-22T16:18:11.242Z,14.83
2019-05-22T16:20:40.223Z,5.57
2019-05-22T16:23:26.177Z,3.43
2019-05-22T16:26:00.453Z,1.53
2019-05-22T16:28:47.043Z,8.33
2019-05-22T16:31:42.653Z,18.50
2019-05-22T16:34:30.518Z,9.03
2019-05-22T16:37:52.472Z,14.33
2019-05-22T16:40:30.302Z,9.47
2019-05-22T16:43:20.508Z,11.93
2019-05-22T16:46:42.287Z,3.93
2019-05-22T16:49:41.711Z,5.03
2019-05-22T16:52:40.647Z,7.37
2019-05-22T16:55:19.891Z,8.30
2019-05-22T16:57:59.987Z,5.20
2019-05-22T17:00:33.489Z,2.93
2019-05-22T17:03:11.429Z,6.40
2019-05-22T17:05:53.046Z,16.37
2019-05-22T17:08:32.296Z,12.70
2019-05-22T17:11:10.488Z,4.07
2019-05-22T17:13:45.852Z,9.97
2019-05-22T17:16:22.431Z,15.03
2019-05-22T17:18:57.722Z,2.90
2019-05-22T17:21:39.929Z,10.87
2019-05-22T17:24:20.971Z,7.73
2019-05-22T17:27:20.271Z,21.40
2019-05-22T17:30:06.998Z,9.00
2019-05-22T17:32:42.676Z,10.40
2019-05-22T17:35:18.904Z,22.23
2019-05-22T17:37:55.195Z,19.27
2019-05-22T17:40:29.555Z,12.60
2019-05-22T17:43:15.814Z,4.47
2019-05-22T17:45:50.889Z,10.17
2019-05-22T17:48:24.433Z,36.87
2019-05-22T17:50:58.777Z,14.83
2019-05-22T17:53:40.764Z,7.97
2019-05-22T17:56:19.384Z,22.40
2019-05-22T17:58:58.675Z,31.83
2019-05-22T18:01:40.476Z,19.43
2019-05-22T18:04:16.698Z,11.30
2019-05-22T18:06:51.361Z,3.73
2019-05-22T18:09:25.861Z,21.27
2019-05-22T18:12:09.190Z,33.00
2019-05-22T18:14:42.970Z,24.83
2019-05-22T18:17:16.925Z,24.17
2019-05-22T18:19:51.315Z,30.63
2019-05-22T18:22:25.239Z,34.60
2019-05-22T18:24:59.451Z,35.00
2019-05-22T18:27:33.691Z,30.17
2019-05-22T18:30:14.059Z,43.87
2019-05-22T18:32:47.895Z,28.47
2019-05-22T18:35:45.971Z,25.70
2019-05-22T18:38:25.935Z,30.60
2019-05-22T18:40:58.039Z,22.03
2019-05-22T18:44:17.056Z,27.70
2019-05-22T18:47:17.785Z,23.40
2019-05-22T18:50:29.024Z,26.07
2019-05-22T18:53:03.979Z,31.00
2019-05-22T18:55:46.811Z,18.77
2019-05-22T18:58:21.297Z,28.57
2019-05-22T19:00:53.949Z,23.67
2019-05-22T19:03:28.236Z,40.67
2019-05-22T19:06:29.781Z,35.47
2019-05-22T19:08:55.117Z,31.97
2019-05-22T19:11:31.010Z,27.07
2019-05-22T19:15:09.192Z,37.37
2019-05-22T19:17:54.832Z,18.80
2019-05-22T19:20:34.122Z,25.90
2019-05-22T19:23:11.712Z,31.90
2019-05-22T19:26:07.189Z,21.87
2019-05-22T19:28:44.333Z,25.47
2019-05-22T19:31:53.301Z,29.13
2019-05-22T19:34:28.603Z,26.93
2019-05-22T19:37:03.006Z,34.23
2019-05-22T19:39:37.986Z,34.47
2019-05-22T19:42:12.218Z,19.00
2019-05-22T19:44:46.489Z,23.20
2019-05-22T19:47:22.066Z,30.93
2019-05-22T19:49:56.145Z,21.23
2019-05-22T19:52:40.973Z,21.60
2019-05-22T19:55:07.166Z,26.63
2019-05-22T19:57:42.041Z,20.23
2019-05-22T20:00:17.020Z,31.50
2019-05-22T20:02:51.193Z,38.30
2019-05-22T20:05:25.891Z,34.20
2019-05-22T20:08:00.220Z,21.60
2019-05-22T20:10:34.477Z,18.03
2019-05-22T20:13:10.022Z,25.90
2019-05-22T20:15:44.259Z,21.23
2019-05-22T20:18:18.544Z,21.53
2019-05-22T20:20:51.024Z,18.23
2019-05-22T20:23:35.214Z,25.13
2019-05-22T20:26:02.091Z,24.37
2019-05-22T20:28:37.061Z,19.13
2019-05-22T20:31:10.807Z,22.10
2019-05-22T20:34:30.322Z,24.93
2019-05-22T20:40:53.618Z,28.93
2019-05-22T20:43:27.938Z,56.27
2019-05-22T20:46:02.244Z,40.27
2019-05-22T20:48:38.697Z,55.10
2019-05-22T20:51:14.910Z,59.33
2019-05-22T20:53:54.025Z,28.80
2019-05-22T20:56:28.348Z,23.60
2019-05-22T20:59:02.729Z,27.53
2019-05-22T21:05:26.164Z,25.40
2019-05-22T21:08:05.527Z,28.33
2019-05-22T21:10:41.198Z,30.33
2019-05-22T21:13:16.995Z,31.87
2019-05-22T21:15:54.345Z,61.70
2019-05-22T21:18:53.588Z,32.47
2019-05-22T21:21:31.971Z,30.77
2019-05-22T21:24:11.609Z,35.83
2019-05-22T21:26:44.277Z,27.30
2019-05-22T21:29:33.809Z,20.07
2019-05-22T21:32:10.488Z,13.80
2019-05-22T21:34:43.950Z,21.37
2019-05-22T21:37:36.894Z,25.40
2019-05-22T21:40:13.719Z,18.73
2019-05-22T21:42:55.957Z,14.87
2019-05-22T21:45:31.572Z,20.70
2019-05-22T21:48:07.006Z,21.03
2019-05-22T21:50:47.564Z,19.07
2019-05-22T21:53:26.917Z,19.70
2019-05-22T21:56:04.623Z,12.07
2019-05-22T21:58:37.516Z,17.83
2019-05-22T22:01:25.522Z,21.20
2019-05-22T22:07:09.242Z,20.93
2019-05-22T22:09:43.125Z,12.07
2019-05-22T22:12:19.487Z,8.73
2019-05-22T22:14:53.514Z,18.27
2019-05-22T22:17:34.692Z,19.30
2019-05-22T22:20:09.297Z,13.17
2019-05-22T22:22:42.466Z,8.63
2019-05-22T22:25:18.423Z,20.07
2019-05-22T22:27:58.490Z,7.50
2019-05-22T22:30:51.975Z,12.77
2019-05-22T22:33:28.769Z,10.63
2019-05-22T22:36:03.700Z,14.57
2019-05-22T22:38:38.490Z,10.17
2019-05-22T22:41:18.976Z,12.40
2019-05-22T22:43:53.006Z,7.37
2019-05-22T22:46:47.227Z,5.93
2019-05-22T22:49:28.229Z,13.40
2019-05-22T22:52:01.557Z,13.63
2019-05-22T22:54:38.054Z,15.93
2019-05-22T22:57:11.640Z,6.90
2019-05-22T22:59:50.969Z,10.20
2019-05-22T23:02:28.560Z,11.27
2019-05-22T23:05:02.493Z,7.23
2019-05-22T23:07:38.464Z,10.87
2019-05-22T23:10:15.879Z,8.80
2019-05-22T23:12:53.275Z,7.53
2019-05-22T23:15:30.525Z,8.60
2019-05-22T23:18:03.651Z,9.07
2019-05-22T23:20:34.605Z,12.93
2019-05-22T23:23:07.479Z,7.07
2019-05-22T23:25:43.144Z,9.27
2019-05-22T23:28:15.904Z,10.03
2019-05-22T23:30:49.241Z,21.80
2019-05-22T23:33:22.756Z,25.77
2019-05-22T23:35:55.896Z,15.93
2019-05-22T23:38:30.320Z,9.00
2019-05-22T23:41:04.970Z,8.00
2019-05-22T23:43:38.390Z,11.93
2019-05-22T23:46:13.757Z,5.93
2019-05-22T23:48:49.292Z,4.27
2019-05-22T23:51:25.643Z,7.03
2019-05-22T23:54:00.725Z,5.83
2019-05-22T23:56:36.887Z,9.47
2019-05-22T23:59:10.981Z,9.50
